Time;durP1;ratioP1;P1;durP2;ratioP2;P2;SDS_P1;SDS_P2;PMS_P1;PMS_P2;Temp;Humidity;BMP_temperature;BMP_pressure;BME280_temperature;BME280_humidity;BME280_pressure;Samples;Min_cycle;Max_cycle;Signal;HPM_P1;HPM_P2
2023/05/19 00:00:00;;;;;;;13.90;12.00;;;;;;;21.64;51.40;101521.55;110306;1276;22412;-46
2023/05/19 00:02:38;;;;;;;16.20;11.70;;;;;;;21.62;50.89;101514.59;110265;1269;22393;-47
2023/05/19 00:05:06;;;;;;;12.80;10.80;;;;;;;21.60;50.52;101515.28;110225;1269;22952;-47
2023/05/19 00:07:33;;;;;;;12.60;11.40;;;;;;;21.55;50.30;101512.92;110366;1276;22137;-49
2023/05/19 00:10:00;;;;;;;15.20;12.50;;;;;;;21.50;50.10;101513.36;110044;1276;22167;-46
2023/05/19 00:12:27;;;;;;;14.00;12.20;;;;;;;21.48;50.10;101518.06;110361;1277;22120;-50
2023/05/19 00:14:55;;;;;;;13.30;12.00;;;;;;;21.49;50.19;101519.79;110475;1269;23054;-46
2023/05/19 00:17:22;;;;;;;15.20;11.20;;;;;;;21.50;50.20;101518.64;110333;1270;22198;-49
2023/05/19 00:19:49;;;;;;;13.80;12.30;;;;;;;21.52;50.13;101520.66;110335;1273;22329;-51
2023/05/19 00:22:16;;;;;;;14.40;11.50;;;;;;;21.53;50.34;101525.16;110454;1272;22100;-50
2023/05/19 00:24:43;;;;;;;12.90;11.40;;;;;;;21.54;50.55;101527.60;110381;1269;22998;-49
2023/05/19 00:27:10;;;;;;;14.60;11.30;;;;;;;21.51;50.78;101532.20;110341;1271;22299;-46
2023/05/19 00:29:37;;;;;;;15.90;11.50;;;;;;;21.45;50.38;101534.30;110346;1269;22120;-49
2023/05/19 00:32:04;;;;;;;11.40;10.20;;;;;;;21.39;50.45;101535.17;110085;1273;22356;-46
2023/05/19 00:34:32;;;;;;;13.70;11.10;;;;;;;21.35;50.45;101537.48;110483;1276;22865;-49
2023/05/19 00:36:59;;;;;;;13.10;10.60;;;;;;;21.33;50.57;101534.80;110437;1276;22102;-51
2023/05/19 00:39:26;;;;;;;13.40;10.60;;;;;;;21.29;50.70;101536.21;110350;1276;22385;-50
2023/05/19 00:41:53;;;;;;;12.60;10.60;;;;;;;21.27;50.74;101541.83;110374;1275;22359;-49
2023/05/19 00:44:20;;;;;;;13.10;11.70;;;;;;;21.25;50.84;101544.75;110571;1268;23144;-46
2023/05/19 00:46:47;;;;;;;13.50;11.10;;;;;;;21.22;50.57;101541.89;110521;1270;22371;-49
2023/05/19 00:49:14;;;;;;;15.00;10.70;;;;;;;21.21;50.67;101542.86;110519;1275;22385;-46
2023/05/19 00:51:41;;;;;;;13.00;11.60;;;;;;;21.20;50.68;101544.65;110501;1269;22348;-46
2023/05/19 00:54:08;;;;;;;11.40;10.30;;;;;;;21.17;50.56;101545.88;110560;1273;22279;-48
2023/05/19 00:56:36;;;;;;;14.80;10.80;;;;;;;21.12;50.34;101545.24;110094;1275;22889;-46
2023/05/19 00:59:03;;;;;;;11.80;10.60;;;;;;;21.08;50.08;101548.14;110537;1275;22143;-47
2023/05/19 01:01:31;;;;;;;13.10;11.50;;;;;;;21.03;50.00;101549.60;110426;1273;22346;-47
2023/05/19 01:03:58;;;;;;;13.50;10.90;;;;;;;20.99;50.43;101550.29;110186;1269;22427;-49
2023/05/19 01:06:26;;;;;;;11.30;10.20;;;;;;;20.97;50.99;101554.30;110236;1275;22156;-52
2023/05/19 01:08:54;;;;;;;11.50;10.40;;;;;;;20.95;50.45;101550.34;110213;1275;23040;-49
2023/05/19 01:11:21;;;;;;;11.00;10.00;;;;;;;20.93;50.09;101544.10;110443;1269;22122;-51
2023/05/19 01:13:48;;;;;;;12.50;10.40;;;;;;;20.91;50.33;101548.77;110521;1275;22177;-48
2023/05/19 01:16:36;;;;;;;15.80;10.40;;;;;;;20.88;50.56;101547.53;110112;1275;22460;-49
2023/05/19 01:19:29;;;;;;;11.50;10.30;;;;;;;20.85;50.59;101548.20;110404;1275;22760;-49
2023/05/19 01:22:13;;;;;;;11.30;10.20;;;;;;;20.85;50.61;101548.39;110510;1275;22127;-50
2023/05/19 01:24:55;;;;;;;11.40;10.30;;;;;;;20.83;50.54;101541.30;110450;1275;22405;-46
2023/05/19 01:27:26;;;;;;;11.50;10.30;;;;;;;20.79;50.60;101543.23;110176;1272;22271;-49
2023/05/19 01:30:12;;;;;;;13.30;11.10;;;;;;;20.77;50.25;101539.31;110485;1275;22121;-50
2023/05/19 01:32:40;;;;;;;11.50;10.20;;;;;;;20.74;50.16;101528.88;110442;1273;22255;-51
2023/05/19 01:35:08;;;;;;;12.50;9.00;;;;;;;20.73;50.17;101526.65;110543;1269;22102;-49
2023/05/19 01:37:36;;;;;;;11.40;10.30;;;;;;;20.72;50.15;101537.80;110091;1274;22151;-47
2023/05/19 01:40:04;;;;;;;11.00;9.70;;;;;;;20.71;49.81;101533.06;110500;1273;22307;-48
2023/05/19 01:42:36;;;;;;;10.70;9.60;;;;;;;20.71;49.51;101535.02;110358;1276;22078;-46
2023/05/19 01:45:10;;;;;;;13.00;10.10;;;;;;;20.70;49.26;101531.55;110319;1275;22254;-49
2023/05/19 01:47:40;;;;;;;10.80;9.70;;;;;;;20.68;48.56;101530.41;110235;1275;22187;-49
2023/05/19 01:50:08;;;;;;;12.50;9.70;;;;;;;20.66;48.74;101533.15;110370;1273;22125;-48
2023/05/19 01:52:35;;;;;;;10.50;9.50;;;;;;;20.66;48.43;101533.36;110555;1269;22388;-46
2023/05/19 01:55:02;;;;;;;10.50;9.40;;;;;;;20.65;48.16;101532.86;110438;1273;22420;-50
2023/05/19 01:57:35;;;;;;;14.00;10.00;;;;;;;20.65;48.01;101538.68;110510;1269;22942;-46
2023/05/19 02:00:08;;;;;;;11.50;10.20;;;;;;;20.65;48.11;101537.80;110253;1273;22553;-48
2023/05/19 02:02:47;;;;;;;11.40;10.30;;;;;;;20.65;48.55;101538.69;110418;1273;22198;-48
2023/05/19 02:05:27;;;;;;;14.80;10.10;;;;;;;20.65;48.68;101540.99;110087;1275;23201;-46
2023/05/19 02:08:11;;;;;;;11.40;10.20;;;;;;;20.61;48.79;101534.50;109445;1272;1002434;-46
2023/05/19 02:10:40;;;;;;;12.70;10.90;;;;;;;20.58;49.24;101540.64;110382;1270;22394;-50
2023/05/19 02:13:07;;;;;;;11.00;9.90;;;;;;;20.55;48.84;101545.55;110543;1268;23076;-49
2023/05/19 02:15:38;;;;;;;11.60;10.40;;;;;;;20.51;49.16;101546.80;110347;1271;22173;-46
2023/05/19 02:18:05;;;;;;;11.40;10.30;;;;;;;20.49;49.62;101549.55;110273;1275;22197;-51
2023/05/19 02:20:32;;;;;;;12.40;10.00;;;;;;;20.47;50.00;101550.35;110438;1273;22289;-49
2023/05/19 02:23:00;;;;;;;12.70;10.20;;;;;;;20.45;50.00;101550.45;110272;1273;22152;-46
2023/05/19 02:25:27;;;;;;;13.00;11.20;;;;;;;20.43;50.03;101553.56;110514;1267;22606;-50
2023/05/19 02:27:54;;;;;;;15.80;10.70;;;;;;;20.41;50.21;101556.69;110508;1271;22329;-45
2023/05/19 02:30:21;;;;;;;11.60;10.40;;;;;;;20.39;50.26;101565.56;110452;1269;22299;-50
2023/05/19 02:32:48;;;;;;;11.50;10.40;;;;;;;20.38;50.38;101568.42;110516;1269;22279;-50
2023/05/19 02:35:15;;;;;;;13.20;10.40;;;;;;;20.36;50.45;101571.02;110248;1275;22410;-48
2023/05/19 02:37:43;;;;;;;12.90;10.50;;;;;;;20.31;50.66;101576.52;110360;1273;22415;-49
2023/05/19 02:40:10;;;;;;;13.20;9.60;;;;;;;20.27;50.60;101576.72;110465;1270;22146;-47
2023/05/19 02:42:37;;;;;;;11.50;10.40;;;;;;;20.20;50.73;101574.77;110198;1276;22414;-46
2023/05/19 02:45:04;;;;;;;11.40;10.20;;;;;;;20.29;50.33;101578.56;110298;1274;22134;-49
2023/05/19 02:47:32;;;;;;;11.10;10.00;;;;;;;20.30;50.17;101578.02;110394;1270;22285;-48
2023/05/19 02:50:04;;;;;;;11.40;10.20;;;;;;;20.28;50.17;101580.38;110372;1275;22420;-48
2023/05/19 02:52:31;;;;;;;11.40;10.30;;;;;;;20.26;50.14;101581.02;110194;1270;22533;-46
2023/05/19 02:54:58;;;;;;;12.00;10.30;;;;;;;20.24;50.01;101584.46;110080;1278;22173;-49
2023/05/19 02:57:25;;;;;;;12.70;10.60;;;;;;;20.22;50.14;101579.65;110022;1273;22359;-49
2023/05/19 02:59:52;;;;;;;12.00;10.00;;;;;;;20.20;50.08;101576.73;108676;1270;1002631;-50
2023/05/19 03:02:20;;;;;;;16.00;10.30;;;;;;;20.18;49.98;101575.91;110071;1272;22456;-46
2023/05/19 03:04:47;;;;;;;11.60;10.40;;;;;;;20.17;49.99;101581.77;110160;1270;22898;-49
2023/05/19 03:07:14;;;;;;;11.50;9.20;;;;;;;20.16;49.92;101582.52;110044;1274;22919;-47
2023/05/19 03:09:41;;;;;;;11.80;10.60;;;;;;;20.16;49.89;101583.04;110083;1272;22978;-52
2023/05/19 03:12:08;;;;;;;13.30;10.70;;;;;;;20.17;49.67;101583.39;110205;1276;22323;-46
2023/05/19 03:14:38;;;;;;;12.00;10.70;;;;;;;20.17;49.44;101582.13;110194;1277;22207;-46
2023/05/19 03:17:08;;;;;;;12.20;10.40;;;;;;;20.17;49.06;101581.78;109939;1276;22567;-46
2023/05/19 03:19:36;;;;;;;11.00;9.90;;;;;;;20.18;49.07;101576.80;109984;1278;22170;-46
2023/05/19 03:22:03;;;;;;;11.50;9.80;;;;;;;20.19;48.49;101579.95;110228;1277;22164;-50
2023/05/19 03:24:31;;;;;;;12.90;10.00;;;;;;;20.21;48.78;101574.93;110054;1273;22386;-48
2023/05/19 03:26:59;;;;;;;12.40;10.70;;;;;;;20.23;48.66;101577.98;110061;1277;22307;-46
2023/05/19 03:29:26;;;;;;;12.00;10.60;;;;;;;20.26;48.61;101575.73;110128;1275;22132;-47
2023/05/19 03:31:53;;;;;;;13.60;9.90;;;;;;;20.31;48.38;101581.84;110499;1269;22199;-51
2023/05/19 03:34:21;;;;;;;10.50;9.40;;;;;;;20.39;47.94;101580.39;110335;1271;22288;-46
2023/05/19 03:36:49;;;;;;;14.30;10.10;;;;;;;20.52;47.43;101576.54;110418;1275;22994;-46
2023/05/19 03:39:16;;;;;;;10.70;9.50;;;;;;;20.66;47.42;101581.83;110391;1270;22276;-46
2023/05/19 03:41:44;;;;;;;14.20;10.10;;;;;;;20.74;47.15;101583.48;110417;1270;22269;-48
2023/05/19 03:44:11;;;;;;;11.00;10.00;;;;;;;20.80;47.33;101583.39;110155;1273;22859;-49
2023/05/19 03:46:38;;;;;;;11.30;10.10;;;;;;;20.86;47.30;101584.33;110344;1275;22435;-49
2023/05/19 03:49:05;;;;;;;11.50;10.10;;;;;;;20.92;47.00;101585.23;110482;1268;22185;-47
2023/05/19 03:51:55;;;;;;;11.60;9.60;;;;;;;21.03;46.97;101586.47;110258;1275;23090;-53
2023/05/19 03:54:33;;;;;;;12.80;10.60;;;;;;;21.16;46.73;101587.39;110101;1275;22209;-50
2023/05/19 03:57:01;;;;;;;12.40;9.40;;;;;;;21.22;46.61;101592.53;110076;1275;22610;-51
2023/05/19 03:59:29;;;;;;;11.10;10.00;;;;;;;21.23;46.50;101593.34;110547;1273;22167;-47
2023/05/19 04:01:56;;;;;;;10.70;9.60;;;;;;;21.27;46.92;101595.11;110454;1270;22144;-48
2023/05/19 04:04:25;;;;;;;13.00;9.90;;;;;;;21.29;46.88;101594.11;110439;1273;23048;-46
2023/05/19 04:06:52;;;;;;;10.60;9.60;;;;;;;21.15;47.20;101594.17;110473;1270;22124;-48
2023/05/19 04:09:20;;;;;;;12.70;9.30;;;;;;;21.09;47.33;101601.36;110483;1275;23087;-46
2023/05/19 04:11:47;;;;;;;10.70;9.30;;;;;;;21.19;47.28;101606.13;109742;1275;1002991;-49
2023/05/19 04:14:14;;;;;;;10.70;9.60;;;;;;;21.29;46.91;101604.90;110455;1269;22147;-46
2023/05/19 04:16:42;;;;;;;14.10;10.10;;;;;;;21.30;46.85;101606.75;110420;1268;22159;-49
2023/05/19 04:19:09;;;;;;;10.10;9.10;;;;;;;21.29;46.94;101604.52;110448;1269;22402;-46
2023/05/19 04:21:36;;;;;;;12.00;9.70;;;;;;;21.20;46.96;101605.19;110475;1275;22459;-46
2023/05/19 04:24:05;;;;;;;13.00;10.20;;;;;;;21.16;47.32;101606.62;110477;1273;23018;-50
2023/05/19 04:26:33;;;;;;;11.30;10.20;;;;;;;21.25;47.44;101607.05;109990;1271;22374;-47
2023/05/19 04:29:03;;;;;;;11.50;10.30;;;;;;;21.29;46.93;101604.17;110081;1273;22236;-47
2023/05/19 04:31:33;;;;;;;10.90;9.80;;;;;;;21.31;46.78;101606.36;110102;1279;22261;-46
2023/05/19 04:34:00;;;;;;;11.00;9.90;;;;;;;21.31;46.83;101610.77;109922;1279;23200;-50
2023/05/19 04:36:28;;;;;;;12.60;10.50;;;;;;;21.31;46.96;101613.39;109956;1281;23104;-49
2023/05/19 04:39:01;;;;;;;10.90;9.80;;;;;;;21.32;47.17;101614.27;109956;1276;22144;-45
2023/05/19 04:41:28;;;;;;;12.50;11.20;;;;;;;21.31;47.28;101616.25;109978;1275;22658;-47
2023/05/19 04:43:56;;;;;;;12.30;11.00;;;;;;;21.14;47.49;101622.80;109125;1283;1002841;-47
2023/05/19 04:46:24;;;;;;;12.40;10.70;;;;;;;21.04;48.00;101622.90;109853;1274;22259;-49
2023/05/19 04:48:54;;;;;;;12.40;10.30;;;;;;;21.04;47.64;101624.00;109886;1283;22380;-49
2023/05/19 04:51:21;;;;;;;12.00;10.80;;;;;;;21.17;47.17;101627.05;109877;1282;22420;-46
2023/05/19 04:53:48;;;;;;;13.90;10.40;;;;;;;21.24;47.42;101626.14;109877;1275;22979;-52
2023/05/19 04:56:15;;;;;;;10.80;9.70;;;;;;;21.23;46.67;101629.88;108307;1283;1002656;-49
2023/05/19 04:58:43;;;;;;;13.90;10.80;;;;;;;21.21;46.80;101634.39;109952;1280;22375;-46
2023/05/19 05:01:12;;;;;;;13.30;10.50;;;;;;;21.21;47.09;101639.55;110001;1279;22845;-47
2023/05/19 05:03:39;;;;;;;11.50;10.30;;;;;;;21.21;46.95;101642.70;109928;1279;22229;-47
2023/05/19 05:06:07;;;;;;;11.70;10.20;;;;;;;21.26;47.19;101645.95;110017;1279;22385;-49
2023/05/19 05:08:36;;;;;;;12.40;9.60;;;;;;;21.29;47.26;101649.19;109343;1272;1002801;-52
2023/05/19 05:11:03;;;;;;;13.40;10.10;;;;;;;21.35;47.24;101645.84;110228;1272;22165;-49
2023/05/19 05:13:31;;;;;;;14.80;12.90;;;;;;;21.55;47.06;101646.02;110114;1277;22290;-46
2023/05/19 05:15:59;;;;;;;12.50;11.20;;;;;;;21.82;47.01;101644.89;110110;1272;22311;-46
2023/05/19 05:18:27;;;;;;;10.90;9.80;;;;;;;22.15;46.64;101649.27;110203;1269;22112;-46
2023/05/19 05:20:54;;;;;;;10.70;9.70;;;;;;;22.51;46.13;101652.15;110359;1269;22467;-49
2023/05/19 05:23:23;;;;;;;12.40;10.00;;;;;;;22.85;44.98;101647.39;110197;1273;22261;-49
2023/05/19 05:25:50;;;;;;;11.20;9.80;;;;;;;23.19;43.78;101651.55;110121;1270;22144;-47
2023/05/19 05:28:17;;;;;;;11.50;9.50;;;;;;;23.30;43.10;101650.84;110191;1270;22310;-50
2023/05/19 05:30:45;;;;;;;12.10;9.40;;;;;;;23.42;42.88;101646.60;110126;1273;22243;-46
2023/05/19 05:33:13;;;;;;;11.10;8.70;;;;;;;23.53;42.64;101644.67;110182;1273;22155;-49
2023/05/19 05:35:40;;;;;;;10.50;9.50;;;;;;;23.65;42.54;101645.16;110225;1271;22271;-52
2023/05/19 05:38:10;;;;;;;12.40;9.60;;;;;;;23.79;42.20;101644.80;110122;1276;22499;-51
2023/05/19 05:40:37;;;;;;;12.20;9.60;;;;;;;24.01;42.37;101648.00;110038;1276;23296;-49
2023/05/19 05:43:04;;;;;;;10.10;9.10;;;;;;;24.29;42.41;101648.70;110101;1273;22196;-48
2023/05/19 05:45:34;;;;;;;11.20;9.90;;;;;;;24.50;42.03;101653.35;110354;1275;22736;-46
2023/05/19 05:48:01;;;;;;;11.00;9.30;;;;;;;24.56;41.22;101656.50;110398;1276;22296;-47
2023/05/19 05:50:29;;;;;;;10.30;9.20;;;;;;;24.47;41.02;101660.30;110389;1275;22428;-49
2023/05/19 05:52:57;;;;;;;12.60;9.80;;;;;;;24.36;40.92;101660.66;110355;1270;22963;-49
2023/05/19 05:55:24;;;;;;;12.10;9.40;;;;;;;24.25;41.57;101662.25;110213;1271;23279;-49
2023/05/19 05:57:51;;;;;;;11.50;9.90;;;;;;;24.19;41.76;101663.19;110340;1275;22399;-49
2023/05/19 06:00:20;;;;;;;10.50;9.40;;;;;;;24.10;42.06;101668.17;110433;1275;22397;-47
2023/05/19 06:02:50;;;;;;;12.90;9.10;;;;;;;24.00;42.27;101665.81;110548;1275;22701;-46
2023/05/19 06:05:18;;;;;;;14.50;9.20;;;;;;;23.95;42.35;101662.95;110377;1273;22787;-50
2023/05/19 06:07:46;;;;;;;11.30;9.50;;;;;;;23.96;42.26;101662.16;110307;1272;23089;-47
2023/05/19 06:10:17;;;;;;;11.00;9.50;;;;;;;24.02;41.78;101659.47;110253;1275;23024;-48
2023/05/19 06:12:45;;;;;;;11.20;10.10;;;;;;;24.10;41.89;101657.20;110230;1272;22853;-47
2023/05/19 06:15:12;;;;;;;11.20;9.40;;;;;;;24.25;41.99;101659.81;110181;1270;22334;-48
2023/05/19 06:17:49;;;;;;;11.40;10.20;;;;;;;24.49;41.88;101668.20;110214;1270;22438;-47
2023/05/19 06:20:17;;;;;;;13.00;9.50;;;;;;;24.73;41.51;101675.24;110005;1276;22174;-49
2023/05/19 06:22:44;;;;;;;10.40;8.70;;;;;;;24.93;41.05;101676.80;110142;1272;22233;-50
2023/05/19 06:25:12;;;;;;;10.70;9.30;;;;;;;25.04;41.08;101671.19;110146;1272;22188;-48
2023/05/19 06:27:39;;;;;;;11.60;10.20;;;;;;;25.16;40.78;101669.37;110109;1277;22322;-48
2023/05/19 06:30:07;;;;;;;11.80;10.20;;;;;;;25.23;40.19;101667.27;110121;1273;22318;-48
2023/05/19 06:32:42;;;;;;;12.60;9.50;;;;;;;25.43;39.62;101674.20;110052;1277;22830;-49
2023/05/19 06:35:09;;;;;;;13.20;9.70;;;;;;;25.55;39.41;101676.78;110383;1270;22221;-53
2023/05/19 06:37:37;;;;;;;11.00;9.90;;;;;;;25.61;39.32;101674.38;110325;1271;22337;-48
2023/05/19 06:40:04;;;;;;;11.00;9.20;;;;;;;25.71;38.83;101674.16;110382;1270;22294;-51
2023/05/19 06:42:32;;;;;;;11.90;9.90;;;;;;;25.73;38.94;101678.10;110045;1275;23012;-48
2023/05/19 06:45:21;;;;;;;11.10;9.70;;;;;;;25.83;38.81;101676.00;110420;1269;22341;-47
2023/05/19 06:47:49;;;;;;;11.40;9.20;;;;;;;25.93;38.33;101673.16;110431;1271;22003;-47
2023/05/19 06:50:16;;;;;;;10.30;9.20;;;;;;;26.05;38.38;101673.75;110434;1268;23216;-47
2023/05/19 06:52:45;;;;;;;11.00;9.30;;;;;;;26.24;38.12;101673.24;110473;1268;22295;-51
2023/05/19 06:55:12;;;;;;;10.70;9.50;;;;;;;26.36;37.95;101672.91;110370;1270;22316;-49
2023/05/19 06:57:40;;;;;;;11.20;9.00;;;;;;;26.48;38.25;101676.81;110390;1270;22282;-53
2023/05/19 07:00:11;;;;;;;11.60;9.00;;;;;;;26.65;38.59;101682.45;110333;1268;22334;-50
2023/05/19 07:02:42;;;;;;;9.20;8.10;;;;;;;26.95;38.25;101684.86;109624;1269;1002282;-50
2023/05/19 07:05:10;;;;;;;7.80;7.00;;;;;;;27.30;36.38;101681.40;109563;1275;1002155;-45
2023/05/19 07:07:37;;;;;;;9.00;6.60;;;;;;;27.71;33.60;101679.86;110448;1267;22287;-49
2023/05/19 07:10:06;;;;;;;7.30;6.60;;;;;;;28.06;32.04;101684.55;110393;1270;23280;-50
2023/05/19 07:12:33;;;;;;;7.70;6.60;;;;;;;28.35;31.04;101681.40;110390;1275;22379;-46
2023/05/19 07:15:00;;;;;;;7.40;6.60;;;;;;;28.54;29.71;101683.22;110409;1276;22365;-47
2023/05/19 07:17:28;;;;;;;6.80;6.10;;;;;;;28.60;28.82;101683.99;110103;1275;22106;-48
2023/05/19 07:19:55;;;;;;;7.10;6.40;;;;;;;28.66;27.96;101681.16;110405;1268;22131;-47
2023/05/19 07:22:22;;;;;;;8.00;6.80;;;;;;;28.67;27.58;101675.95;110485;1269;22146;-49
2023/05/19 07:24:50;;;;;;;7.40;6.70;;;;;;;28.63;27.60;101675.71;110454;1268;22090;-51
2023/05/19 07:27:17;;;;;;;8.20;7.00;;;;;;;28.62;27.69;101679.04;110233;1274;22774;-48
2023/05/19 07:29:44;;;;;;;8.80;7.40;;;;;;;28.60;27.89;101675.25;110151;1276;23201;-46
2023/05/19 07:32:11;;;;;;;10.60;7.60;;;;;;;28.51;27.34;101670.66;110036;1270;22219;-53
2023/05/19 07:34:39;;;;;;;9.80;7.60;;;;;;;28.28;27.44;101670.27;110165;1270;22536;-48
2023/05/19 07:37:06;;;;;;;9.80;7.30;;;;;;;28.03;27.95;101670.52;110249;1270;22487;-48
2023/05/19 07:39:33;;;;;;;9.40;7.20;;;;;;;27.86;28.41;101672.96;110277;1275;22427;-46
2023/05/19 07:42:01;;;;;;;8.30;6.10;;;;;;;27.75;28.35;101671.30;109291;1273;1002351;-49
2023/05/19 07:44:30;;;;;;;10.50;6.90;;;;;;;27.65;27.76;101669.11;110231;1271;22320;-47
2023/05/19 07:46:57;;;;;;;9.00;7.20;;;;;;;27.49;27.74;101671.27;110244;1272;22936;-49
2023/05/19 07:49:24;;;;;;;11.30;7.10;;;;;;;27.32;28.17;101673.77;110031;1270;22408;-48
2023/05/19 07:51:51;;;;;;;9.40;7.10;;;;;;;27.21;28.66;101668.58;110227;1270;23038;-46
2023/05/19 07:54:19;;;;;;;7.90;7.00;;;;;;;27.16;28.54;101670.41;110228;1277;23364;-49
2023/05/19 07:56:47;;;;;;;10.60;7.00;;;;;;;27.11;28.53;101667.27;110228;1271;23084;-47
2023/05/19 07:59:14;;;;;;;10.90;6.60;;;;;;;27.05;28.79;101671.82;110421;1268;22346;-46
2023/05/19 08:01:41;;;;;;;9.50;6.70;;;;;;;27.01;28.80;101670.34;110461;1268;22270;-47
2023/05/19 08:04:09;;;;;;;7.80;7.00;;;;;;;26.99;28.85;101668.20;110209;1273;22405;-52
2023/05/19 08:06:39;;;;;;;9.50;7.00;;;;;;;26.99;29.21;101669.25;110454;1268;22187;-49
2023/05/19 08:09:06;;;;;;;7.10;6.40;;;;;;;27.01;29.06;101665.73;110499;1268;23020;-52
2023/05/19 08:11:33;;;;;;;8.20;7.10;;;;;;;27.01;29.24;101665.48;110446;1273;22764;-48
2023/05/19 08:14:00;;;;;;;10.30;7.30;;;;;;;27.06;29.25;101667.27;110454;1269;22405;-46
2023/05/19 08:16:27;;;;;;;9.80;7.40;;;;;;;27.06;28.83;101665.08;110485;1275;23046;-48
2023/05/19 08:18:54;;;;;;;10.30;7.10;;;;;;;27.10;29.06;101666.94;110418;1270;22140;-47
2023/05/19 08:21:21;;;;;;;9.40;6.90;;;;;;;27.14;29.39;101670.91;110320;1277;22182;-47
2023/05/19 08:23:48;;;;;;;10.70;7.30;;;;;;;27.19;29.36;101668.20;110020;1276;22312;-47
2023/05/19 08:26:15;;;;;;;7.60;6.80;;;;;;;27.22;29.35;101667.77;110004;1269;22136;-47
2023/05/19 08:28:43;;;;;;;11.30;7.40;;;;;;;27.25;29.47;101670.40;110220;1277;22213;-49
2023/05/19 08:31:10;;;;;;;11.30;7.50;;;;;;;27.31;29.63;101676.18;110172;1271;22239;-52
2023/05/19 08:33:37;;;;;;;7.90;7.10;;;;;;;27.38;29.78;101677.45;110204;1271;22836;-49
2023/05/19 08:36:05;;;;;;;8.70;7.30;;;;;;;27.39;29.54;101675.20;110019;1276;22384;-46
2023/05/19 08:38:32;;;;;;;8.50;7.20;;;;;;;27.38;29.95;101676.73;109934;1277;22447;-50
2023/05/19 08:40:59;;;;;;;9.10;7.50;;;;;;;27.42;30.33;101680.54;110251;1271;22289;-49
2023/05/19 08:43:26;;;;;;;8.40;7.20;;;;;;;27.50;30.26;101678.89;110100;1273;23056;-46
2023/05/19 08:45:54;;;;;;;8.70;7.20;;;;;;;27.56;29.90;101678.93;110110;1277;22229;-47
2023/05/19 08:48:21;;;;;;;10.30;6.80;;;;;;;27.57;29.88;101685.63;110054;1271;22921;-46
2023/05/19 08:51:17;;;;;;;11.40;7.70;;;;;;;27.54;30.20;101697.61;110105;1270;22381;-49
2023/05/19 08:53:47;;;;;;;11.80;7.90;;;;;;;27.51;30.61;101691.79;110129;1276;22354;-46
2023/05/19 08:56:17;;;;;;;9.60;7.80;;;;;;;27.41;30.84;101693.08;110345;1276;22348;-46
2023/05/19 08:58:44;;;;;;;9.10;7.80;;;;;;;27.34;31.18;101689.52;110279;1269;22297;-46
2023/05/19 09:01:12;;;;;;;12.30;7.70;;;;;;;27.34;31.19;101690.77;110315;1276;22400;-51
2023/05/19 09:03:39;;;;;;;8.90;7.90;;;;;;;27.24;31.54;101690.77;110367;1277;22305;-46
2023/05/19 09:06:08;;;;;;;10.00;7.90;;;;;;;27.17;31.75;101689.40;110126;1272;22291;-52
2023/05/19 09:08:36;;;;;;;10.70;7.90;;;;;;;27.07;31.90;101691.02;110058;1274;22359;-46
2023/05/19 09:11:03;;;;;;;8.00;7.20;;;;;;;26.99;32.42;101691.50;110189;1278;22212;-46
2023/05/19 09:13:30;;;;;;;9.90;7.10;;;;;;;26.87;33.05;101688.52;110122;1273;22235;-49
2023/05/19 09:15:57;;;;;;;11.10;7.40;;;;;;;26.79;33.48;101690.36;110213;1270;22217;-49
2023/05/19 09:18:27;;;;;;;8.00;6.60;;;;;;;26.72;33.56;101683.73;110214;1278;23121;-46
2023/05/19 09:20:59;;;;;;;8.40;7.50;;;;;;;26.64;33.43;101682.16;109946;1278;23349;-52
2023/05/19 09:23:31;;;;;;;7.10;6.30;;;;;;;26.56;33.70;101680.31;110121;1270;22445;-51
2023/05/19 09:26:03;;;;;;;7.80;6.20;;;;;;;26.50;33.63;101676.48;110046;1272;22317;-49
2023/05/19 09:28:32;;;;;;;6.60;5.80;;;;;;;26.48;34.09;101676.48;110206;1272;23074;-49
2023/05/19 09:31:05;;;;;;;7.20;6.20;;;;;;;26.46;33.86;101673.92;110124;1278;22847;-46
2023/05/19 09:33:34;;;;;;;5.90;5.30;;;;;;;26.43;33.39;101672.73;110131;1270;22176;-48
2023/05/19 09:36:02;;;;;;;5.70;4.70;;;;;;;26.42;32.47;101674.63;110043;1278;22168;-50
2023/05/19 09:38:29;;;;;;;4.30;3.80;;;;;;;26.42;31.72;101674.45;110382;1269;22178;-48
2023/05/19 09:40:57;;;;;;;7.00;4.30;;;;;;;26.39;31.23;101675.51;110341;1276;22286;-47
2023/05/19 09:43:28;;;;;;;4.30;3.90;;;;;;;26.42;30.28;101672.97;110443;1268;22152;-46
2023/05/19 09:46:02;;;;;;;4.20;3.80;;;;;;;26.45;30.50;101664.44;110418;1275;22133;-48
2023/05/19 09:48:29;;;;;;;5.30;4.20;;;;;;;26.45;31.62;101661.58;110462;1272;22507;-48
2023/05/19 09:50:56;;;;;;;6.40;4.10;;;;;;;26.42;32.44;101656.59;110401;1268;22400;-47
2023/05/19 09:53:24;;;;;;;4.50;4.10;;;;;;;26.39;32.50;101655.98;110449;1268;22351;-48
2023/05/19 09:55:56;;;;;;;4.50;4.10;;;;;;;26.30;32.86;101654.63;110422;1273;22107;-46
2023/05/19 09:58:23;;;;;;;4.80;4.40;;;;;;;26.28;33.17;101653.56;110116;1273;22891;-48
2023/05/19 10:00:52;;;;;;;4.70;4.20;;;;;;;26.25;33.81;101654.13;110526;1268;22416;-48
2023/05/19 10:03:21;;;;;;;6.00;4.10;;;;;;;26.27;34.31;101651.33;110309;1272;22144;-46
2023/05/19 10:05:49;;;;;;;4.50;4.10;;;;;;;26.31;33.94;101648.91;110356;1275;23068;-47
2023/05/19 10:08:16;;;;;;;5.40;4.60;;;;;;;26.36;33.46;101646.89;110430;1276;22369;-47
2023/05/19 10:10:46;;;;;;;4.70;4.30;;;;;;;26.43;32.89;101645.14;110427;1270;22301;-48
2023/05/19 10:13:14;;;;;;;4.40;4.00;;;;;;;26.49;32.61;101645.75;110445;1268;22794;-47
2023/05/19 10:15:41;;;;;;;7.90;4.60;;;;;;;26.56;32.37;101648.11;110415;1269;22166;-46
2023/05/19 10:18:24;;;;;;;5.30;4.50;;;;;;;26.65;31.53;101642.58;110442;1275;22918;-46
2023/05/19 10:20:51;;;;;;;5.70;4.40;;;;;;;26.80;32.30;101639.15;110460;1268;22445;-49
2023/05/19 10:23:19;;;;;;;5.80;4.60;;;;;;;26.97;32.47;101639.60;110396;1275;22905;-49
2023/05/19 10:25:46;;;;;;;6.40;4.50;;;;;;;27.13;32.22;101640.18;110457;1268;22254;-46
2023/05/19 10:28:15;;;;;;;6.90;4.10;;;;;;;27.29;31.99;101642.68;110286;1271;22360;-48
2023/05/19 10:30:43;;;;;;;5.40;4.80;;;;;;;27.38;32.63;101635.20;110388;1275;22644;-48
2023/05/19 10:33:15;;;;;;;4.40;4.00;;;;;;;27.42;32.75;101633.65;110495;1275;22125;-50
2023/05/19 10:36:25;;;;;;;4.80;4.30;;;;;;;27.50;32.55;101630.73;110514;1270;22269;-48
2023/05/19 10:39:23;;;;;;;4.50;4.10;;;;;;;27.47;32.24;101632.02;110414;1271;22312;-50
2023/05/19 10:42:16;;;;;;;4.80;4.40;;;;;;;27.44;32.21;101626.95;110393;1273;23059;-46
2023/05/19 10:45:14;;;;;;;5.10;4.10;;;;;;;27.49;32.74;101629.23;110078;1279;22242;-52
2023/05/19 10:47:41;;;;;;;5.10;4.00;;;;;;;27.63;32.21;101621.69;109937;1280;23065;-52
2023/05/19 10:50:08;;;;;;;7.10;4.30;;;;;;;27.78;30.04;101613.83;110049;1279;23182;-46
2023/05/19 10:52:36;;;;;;;6.60;3.70;;;;;;;27.93;28.64;101619.38;110029;1274;22159;-47
2023/05/19 10:55:07;;;;;;;5.70;4.30;;;;;;;28.07;27.76;101621.14;109953;1279;22183;-47
2023/05/19 10:57:35;;;;;;;4.20;3.80;;;;;;;28.21;26.98;101617.83;109275;1273;1007563;-46
2023/05/19 11:00:10;;;;;;;4.40;4.00;;;;;;;28.33;26.68;101616.42;110053;1273;22276;-48
2023/05/19 11:02:41;;;;;;;5.00;3.70;;;;;;;28.46;26.37;101617.20;110017;1274;22172;-50
2023/05/19 11:05:13;;;;;;;5.80;3.80;;;;;;;28.55;25.79;101616.02;110042;1276;22260;-51
2023/05/19 11:07:54;;;;;;;4.50;4.10;;;;;;;28.64;25.72;101616.77;109931;1279;22293;-49
2023/05/19 11:10:24;;;;;;;4.70;3.80;;;;;;;28.71;25.88;101607.91;110072;1272;22980;-48
2023/05/19 11:12:51;;;;;;;4.40;3.90;;;;;;;28.78;25.97;101611.78;110051;1274;22191;-48
2023/05/19 11:15:18;;;;;;;4.40;4.00;;;;;;;28.86;25.92;101609.45;109368;1276;1002383;-46
2023/05/19 11:17:47;;;;;;;3.90;3.60;;;;;;;28.94;25.42;101606.62;110146;1268;22148;-46